Terminal Aerodrome Forecast
Issued by NWS

Home | Current Version | Previous Version | Text Only | Print | Product List | Glossary On
Versions: 1 2 3 4 5 6 7 8 9 10 11 12 13 14 15
087
FTUS43 KICT 231739
TAFHUT
TAF
KHUT 231739Z 2318/2418 35022G32KT P6SM SCT200
     FM240000 33013KT P6SM SKC
     FM240600 32012KT P6SM SKC WS020/33045KT
     FM241300 32016G23KT P6SM SKC
     FM241600 33022G32KT P6SM SKC=

USA.gov is the U.S. government's official web portal to all federal, state and local government web resources and services.